sensor_id;sensor_type;location;lat;lon;timestamp;P1;durP1;ratioP1;P2;durP2;ratioP2
33453;SDS011;39400;49.744;7.012;2023-04-25T00:01:45;16.65;;;11.57;;
33453;SDS011;39400;49.744;7.012;2023-04-25T00:04:10;18.42;;;13.55;;
33453;SDS011;39400;49.744;7.012;2023-04-25T00:06:35;15.20;;;10.70;;
33453;SDS011;39400;49.744;7.012;2023-04-25T00:09:00;16.75;;;11.27;;
33453;SDS011;39400;49.744;7.012;2023-04-25T00:11:26;14.57;;;10.13;;
33453;SDS011;39400;49.744;7.012;2023-04-25T00:13:51;16.80;;;11.52;;
33453;SDS011;39400;49.744;7.012;2023-04-25T00:16:17;18.65;;;12.63;;
33453;SDS011;39400;49.744;7.012;2023-04-25T00:18:42;19.67;;;14.05;;
33453;SDS011;39400;49.744;7.012;2023-04-25T00:21:10;17.25;;;12.30;;
33453;SDS011;39400;49.744;7.012;2023-04-25T00:23:35;16.20;;;11.35;;
33453;SDS011;39400;49.744;7.012;2023-04-25T00:26:01;19.10;;;12.38;;
33453;SDS011;39400;49.744;7.012;2023-04-25T00:28:27;18.52;;;11.40;;
33453;SDS011;39400;49.744;7.012;2023-04-25T00:30:52;16.83;;;12.00;;
33453;SDS011;39400;49.744;7.012;2023-04-25T00:33:17;18.48;;;13.77;;
33453;SDS011;39400;49.744;7.012;2023-04-25T00:35:43;17.40;;;11.32;;
33453;SDS011;39400;49.744;7.012;2023-04-25T00:38:08;16.35;;;11.27;;
33453;SDS011;39400;49.744;7.012;2023-04-25T00:40:33;15.98;;;11.65;;
33453;SDS011;39400;49.744;7.012;2023-04-25T00:42:59;17.55;;;12.05;;
33453;SDS011;39400;49.744;7.012;2023-04-25T00:45:27;13.35;;;10.23;;
33453;SDS011;39400;49.744;7.012;2023-04-25T00:47:54;17.60;;;11.77;;
33453;SDS011;39400;49.744;7.012;2023-04-25T00:50:19;14.98;;;11.40;;
33453;SDS011;39400;49.744;7.012;2023-04-25T00:52:44;15.25;;;10.82;;
33453;SDS011;39400;49.744;7.012;2023-04-25T00:55:10;13.77;;;10.40;;
33453;SDS011;39400;49.744;7.012;2023-04-25T00:57:37;21.90;;;13.23;;
33453;SDS011;39400;49.744;7.012;2023-04-25T01:00:03;16.80;;;11.65;;
33453;SDS011;39400;49.744;7.012;2023-04-25T01:02:30;16.45;;;12.63;;
33453;SDS011;39400;49.744;7.012;2023-04-25T01:04:57;14.43;;;11.07;;
33453;SDS011;39400;49.744;7.012;2023-04-25T01:07:22;15.13;;;10.77;;
33453;SDS011;39400;49.744;7.012;2023-04-25T01:09:47;16.63;;;11.90;;
33453;SDS011;39400;49.744;7.012;2023-04-25T01:12:13;17.17;;;11.02;;
33453;SDS011;39400;49.744;7.012;2023-04-25T01:14:38;15.32;;;11.35;;
33453;SDS011;39400;49.744;7.012;2023-04-25T01:17:04;15.45;;;10.52;;
33453;SDS011;39400;49.744;7.012;2023-04-25T01:19:29;16.05;;;11.13;;
33453;SDS011;39400;49.744;7.012;2023-04-25T01:21:56;14.45;;;11.82;;
33453;SDS011;39400;49.744;7.012;2023-04-25T01:24:22;19.35;;;12.15;;
33453;SDS011;39400;49.744;7.012;2023-04-25T01:26:48;15.88;;;11.25;;
33453;SDS011;39400;49.744;7.012;2023-04-25T01:29:14;14.40;;;10.82;;
33453;SDS011;39400;49.744;7.012;2023-04-25T01:31:39;13.60;;;10.52;;
33453;SDS011;39400;49.744;7.012;2023-04-25T01:34:04;15.13;;;11.65;;
33453;SDS011;39400;49.744;7.012;2023-04-25T01:36:30;19.15;;;12.48;;
33453;SDS011;39400;49.744;7.012;2023-04-25T01:38:55;17.65;;;12.18;;
33453;SDS011;39400;49.744;7.012;2023-04-25T01:41:21;16.33;;;12.10;;
33453;SDS011;39400;49.744;7.012;2023-04-25T01:43:47;15.90;;;10.52;;
33453;SDS011;39400;49.744;7.012;2023-04-25T01:46:13;15.45;;;10.75;;
33453;SDS011;39400;49.744;7.012;2023-04-25T01:48:38;15.20;;;10.13;;
33453;SDS011;39400;49.744;7.012;2023-04-25T01:51:03;15.82;;;11.05;;
33453;SDS011;39400;49.744;7.012;2023-04-25T01:53:29;16.02;;;10.35;;
33453;SDS011;39400;49.744;7.012;2023-04-25T01:55:55;14.27;;;10.57;;
33453;SDS011;39400;49.744;7.012;2023-04-25T01:58:25;14.07;;;9.68;;
33453;SDS011;39400;49.744;7.012;2023-04-25T02:01:06;15.48;;;10.32;;
33453;SDS011;39400;49.744;7.012;2023-04-25T02:03:39;15.02;;;10.55;;
33453;SDS011;39400;49.744;7.012;2023-04-25T02:06:09;14.15;;;9.52;;
33453;SDS011;39400;49.744;7.012;2023-04-25T02:08:38;18.05;;;12.38;;
33453;SDS011;39400;49.744;7.012;2023-04-25T02:11:03;14.07;;;10.13;;
33453;SDS011;39400;49.744;7.012;2023-04-25T02:13:36;17.15;;;10.75;;
33453;SDS011;39400;49.744;7.012;2023-04-25T02:16:16;13.75;;;10.45;;
33453;SDS011;39400;49.744;7.012;2023-04-25T02:18:42;14.95;;;11.38;;
33453;SDS011;39400;49.744;7.012;2023-04-25T02:21:08;19.58;;;11.45;;
33453;SDS011;39400;49.744;7.012;2023-04-25T02:23:33;14.60;;;10.27;;
33453;SDS011;39400;49.744;7.012;2023-04-25T02:25:59;15.60;;;11.27;;
33453;SDS011;39400;49.744;7.012;2023-04-25T02:28:24;16.42;;;11.02;;
33453;SDS011;39400;49.744;7.012;2023-04-25T02:30:49;16.98;;;10.85;;
33453;SDS011;39400;49.744;7.012;2023-04-25T02:33:15;14.07;;;10.75;;
33453;SDS011;39400;49.744;7.012;2023-04-25T02:35:40;14.98;;;10.52;;
33453;SDS011;39400;49.744;7.012;2023-04-25T02:38:05;14.80;;;11.10;;
33453;SDS011;39400;49.744;7.012;2023-04-25T02:40:32;16.35;;;11.63;;
33453;SDS011;39400;49.744;7.012;2023-04-25T02:42:57;16.70;;;11.85;;
33453;SDS011;39400;49.744;7.012;2023-04-25T02:45:25;15.32;;;11.57;;
33453;SDS011;39400;49.744;7.012;2023-04-25T02:47:50;15.82;;;11.65;;
33453;SDS011;39400;49.744;7.012;2023-04-25T02:50:18;15.68;;;10.43;;
33453;SDS011;39400;49.744;7.012;2023-04-25T02:52:43;17.83;;;11.30;;
33453;SDS011;39400;49.744;7.012;2023-04-25T02:55:15;14.88;;;11.13;;
33453;SDS011;39400;49.744;7.012;2023-04-25T02:57:41;14.15;;;9.50;;
33453;SDS011;39400;49.744;7.012;2023-04-25T03:00:10;15.38;;;11.07;;
33453;SDS011;39400;49.744;7.012;2023-04-25T03:02:37;15.85;;;10.70;;
33453;SDS011;39400;49.744;7.012;2023-04-25T03:05:02;13.55;;;10.18;;
33453;SDS011;39400;49.744;7.012;2023-04-25T03:07:28;16.30;;;11.15;;
33453;SDS011;39400;49.744;7.012;2023-04-25T03:09:53;11.90;;;9.98;;
33453;SDS011;39400;49.744;7.012;2023-04-25T03:12:18;14.32;;;10.38;;
33453;SDS011;39400;49.744;7.012;2023-04-25T03:14:44;14.73;;;10.27;;
33453;SDS011;39400;49.744;7.012;2023-04-25T03:17:09;14.52;;;10.82;;
33453;SDS011;39400;49.744;7.012;2023-04-25T03:19:35;15.18;;;11.40;;
33453;SDS011;39400;49.744;7.012;2023-04-25T03:22:00;12.95;;;9.43;;
33453;SDS011;39400;49.744;7.012;2023-04-25T03:24:26;15.27;;;11.02;;
33453;SDS011;39400;49.744;7.012;2023-04-25T03:26:51;16.40;;;11.25;;
33453;SDS011;39400;49.744;7.012;2023-04-25T03:29:17;13.13;;;10.38;;
33453;SDS011;39400;49.744;7.012;2023-04-25T03:31:43;16.00;;;11.57;;
33453;SDS011;39400;49.744;7.012;2023-04-25T03:34:08;16.52;;;11.45;;
33453;SDS011;39400;49.744;7.012;2023-04-25T03:36:34;13.95;;;10.23;;
33453;SDS011;39400;49.744;7.012;2023-04-25T03:39:00;14.88;;;10.20;;
33453;SDS011;39400;49.744;7.012;2023-04-25T03:41:27;15.32;;;10.32;;
33453;SDS011;39400;49.744;7.012;2023-04-25T03:44:01;19.58;;;12.77;;
33453;SDS011;39400;49.744;7.012;2023-04-25T03:46:26;16.17;;;12.10;;
33453;SDS011;39400;49.744;7.012;2023-04-25T03:48:51;16.85;;;11.13;;
33453;SDS011;39400;49.744;7.012;2023-04-25T03:51:21;15.68;;;10.52;;
33453;SDS011;39400;49.744;7.012;2023-04-25T03:53:47;17.88;;;11.48;;
33453;SDS011;39400;49.744;7.012;2023-04-25T03:56:19;17.65;;;12.02;;
33453;SDS011;39400;49.744;7.012;2023-04-25T03:58:46;14.07;;;10.43;;
33453;SDS011;39400;49.744;7.012;2023-04-25T04:01:13;15.85;;;11.60;;
33453;SDS011;39400;49.744;7.012;2023-04-25T04:03:39;15.38;;;11.13;;
33453;SDS011;39400;49.744;7.012;2023-04-25T04:06:05;18.27;;;12.77;;
33453;SDS011;39400;49.744;7.012;2023-04-25T04:08:35;17.25;;;13.05;;
33453;SDS011;39400;49.744;7.012;2023-04-25T04:11:01;14.93;;;10.65;;
33453;SDS011;39400;49.744;7.012;2023-04-25T04:13:27;14.27;;;10.70;;
33453;SDS011;39400;49.744;7.012;2023-04-25T04:15:54;15.27;;;11.20;;
33453;SDS011;39400;49.744;7.012;2023-04-25T04:18:20;17.88;;;12.32;;
33453;SDS011;39400;49.744;7.012;2023-04-25T04:20:45;16.38;;;11.80;;
33453;SDS011;39400;49.744;7.012;2023-04-25T04:23:11;17.17;;;11.65;;
33453;SDS011;39400;49.744;7.012;2023-04-25T04:25:36;15.93;;;11.27;;
33453;SDS011;39400;49.744;7.012;2023-04-25T04:28:28;15.40;;;10.73;;
33453;SDS011;39400;49.744;7.012;2023-04-25T04:30:57;17.73;;;12.45;;
33453;SDS011;39400;49.744;7.012;2023-04-25T04:33:23;16.25;;;11.80;;
33453;SDS011;39400;49.744;7.012;2023-04-25T04:35:55;17.63;;;12.52;;
33453;SDS011;39400;49.744;7.012;2023-04-25T04:38:20;17.13;;;12.27;;
33453;SDS011;39400;49.744;7.012;2023-04-25T04:40:46;16.25;;;11.38;;
33453;SDS011;39400;49.744;7.012;2023-04-25T04:43:23;19.20;;;13.48;;
33453;SDS011;39400;49.744;7.012;2023-04-25T04:46:02;17.85;;;12.73;;
33453;SDS011;39400;49.744;7.012;2023-04-25T04:48:39;14.30;;;10.07;;
33453;SDS011;39400;49.744;7.012;2023-04-25T04:51:23;13.85;;;9.75;;
33453;SDS011;39400;49.744;7.012;2023-04-25T04:54:03;12.02;;;8.60;;
33453;SDS011;39400;49.744;7.012;2023-04-25T04:56:49;11.27;;;8.40;;
33453;SDS011;39400;49.744;7.012;2023-04-25T04:59:35;11.75;;;9.10;;
33453;SDS011;39400;49.744;7.012;2023-04-25T05:02:19;11.70;;;8.60;;
33453;SDS011;39400;49.744;7.012;2023-04-25T05:05:05;13.13;;;9.57;;
33453;SDS011;39400;49.744;7.012;2023-04-25T05:07:53;14.50;;;10.25;;
33453;SDS011;39400;49.744;7.012;2023-04-25T05:10:42;10.40;;;6.97;;
33453;SDS011;39400;49.744;7.012;2023-04-25T05:13:33;12.10;;;7.43;;
33453;SDS011;39400;49.744;7.012;2023-04-25T05:16:17;9.90;;;7.22;;
33453;SDS011;39400;49.744;7.012;2023-04-25T05:18:50;12.25;;;8.77;;
33453;SDS011;39400;49.744;7.012;2023-04-25T05:21:28;6.10;;;3.78;;
33453;SDS011;39400;49.744;7.012;2023-04-25T05:24:08;10.02;;;6.82;;
33453;SDS011;39400;49.744;7.012;2023-04-25T05:26:52;11.18;;;7.88;;
33453;SDS011;39400;49.744;7.012;2023-04-25T05:29:59;10.70;;;7.70;;
33453;SDS011;39400;49.744;7.012;2023-04-25T05:32:28;12.50;;;9.32;;
33453;SDS011;39400;49.744;7.012;2023-04-25T05:34:54;15.18;;;10.88;;
33453;SDS011;39400;49.744;7.012;2023-04-25T05:37:24;17.10;;;11.38;;
33453;SDS011;39400;49.744;7.012;2023-04-25T05:40:04;15.90;;;11.80;;
33453;SDS011;39400;49.744;7.012;2023-04-25T05:42:56;18.20;;;12.55;;
33453;SDS011;39400;49.744;7.012;2023-04-25T05:45:40;17.95;;;13.45;;
33453;SDS011;39400;49.744;7.012;2023-04-25T05:48:28;16.70;;;13.02;;
33453;SDS011;39400;49.744;7.012;2023-04-25T05:51:20;19.48;;;13.23;;
33453;SDS011;39400;49.744;7.012;2023-04-25T05:53:56;19.45;;;12.60;;
33453;SDS011;39400;49.744;7.012;2023-04-25T05:56:22;20.33;;;13.15;;
33453;SDS011;39400;49.744;7.012;2023-04-25T05:58:50;21.47;;;13.33;;
33453;SDS011;39400;49.744;7.012;2023-04-25T06:01:16;22.15;;;13.48;;
33453;SDS011;39400;49.744;7.012;2023-04-25T06:03:41;17.30;;;13.18;;
33453;SDS011;39400;49.744;7.012;2023-04-25T06:06:07;18.55;;;13.13;;
33453;SDS011;39400;49.744;7.012;2023-04-25T06:08:32;19.13;;;13.30;;
33453;SDS011;39400;49.744;7.012;2023-04-25T06:10:57;17.95;;;12.27;;
33453;SDS011;39400;49.744;7.012;2023-04-25T06:13:23;14.50;;;10.27;;
33453;SDS011;39400;49.744;7.012;2023-04-25T06:15:48;15.07;;;10.10;;
33453;SDS011;39400;49.744;7.012;2023-04-25T06:18:14;17.77;;;9.98;;
33453;SDS011;39400;49.744;7.012;2023-04-25T06:20:39;14.50;;;9.90;;
33453;SDS011;39400;49.744;7.012;2023-04-25T06:23:05;15.48;;;9.93;;
33453;SDS011;39400;49.744;7.012;2023-04-25T06:25:39;15.80;;;9.85;;
33453;SDS011;39400;49.744;7.012;2023-04-25T06:46:52;23.88;;;12.43;;
33453;SDS011;39400;49.744;7.012;2023-04-25T06:49:18;23.98;;;15.10;;
33453;SDS011;39400;49.744;7.012;2023-04-25T06:51:44;32.30;;;15.70;;
33453;SDS011;39400;49.744;7.012;2023-04-25T06:54:09;24.33;;;14.65;;
33453;SDS011;39400;49.744;7.012;2023-04-25T06:56:41;26.67;;;15.07;;
33453;SDS011;39400;49.744;7.012;2023-04-25T06:59:11;28.15;;;18.23;;
33453;SDS011;39400;49.744;7.012;2023-04-25T07:01:39;20.88;;;13.75;;
33453;SDS011;39400;49.744;7.012;2023-04-25T07:04:10;25.52;;;17.02;;
33453;SDS011;39400;49.744;7.012;2023-04-25T07:06:40;28.25;;;13.88;;
33453;SDS011;39400;49.744;7.012;2023-04-25T07:09:05;31.23;;;15.65;;
33453;SDS011;39400;49.744;7.012;2023-04-25T07:11:30;26.33;;;14.68;;
33453;SDS011;39400;49.744;7.012;2023-04-25T07:13:56;20.20;;;12.85;;
33453;SDS011;39400;49.744;7.012;2023-04-25T07:16:21;23.23;;;14.43;;
33453;SDS011;39400;49.744;7.012;2023-04-25T07:18:46;60.42;;;28.65;;
33453;SDS011;39400;49.744;7.012;2023-04-25T07:21:12;28.00;;;13.90;;
33453;SDS011;39400;49.744;7.012;2023-04-25T07:23:40;36.10;;;21.80;;
33453;SDS011;39400;49.744;7.012;2023-04-25T07:26:09;25.40;;;12.52;;
33453;SDS011;39400;49.744;7.012;2023-04-25T07:28:39;20.05;;;11.30;;
33453;SDS011;39400;49.744;7.012;2023-04-25T07:31:04;21.45;;;11.52;;
33453;SDS011;39400;49.744;7.012;2023-04-25T07:33:31;20.35;;;11.75;;
33453;SDS011;39400;49.744;7.012;2023-04-25T07:35:56;18.42;;;11.05;;
33453;SDS011;39400;49.744;7.012;2023-04-25T07:38:21;20.02;;;10.80;;
33453;SDS011;39400;49.744;7.012;2023-04-25T07:40:47;27.38;;;12.65;;
33453;SDS011;39400;49.744;7.012;2023-04-25T07:43:15;23.60;;;12.07;;
33453;SDS011;39400;49.744;7.012;2023-04-25T07:45:47;24.42;;;11.82;;
33453;SDS011;39400;49.744;7.012;2023-04-25T07:48:18;25.80;;;12.38;;
33453;SDS011;39400;49.744;7.012;2023-04-25T07:50:45;25.00;;;11.70;;
33453;SDS011;39400;49.744;7.012;2023-04-25T07:53:10;20.73;;;12.02;;
33453;SDS011;39400;49.744;7.012;2023-04-25T07:55:43;20.80;;;10.88;;
33453;SDS011;39400;49.744;7.012;2023-04-25T07:58:15;19.05;;;9.77;;
33453;SDS011;39400;49.744;7.012;2023-04-25T08:00:43;17.80;;;9.95;;
33453;SDS011;39400;49.744;7.012;2023-04-25T08:03:23;24.27;;;9.05;;
33453;SDS011;39400;49.744;7.012;2023-04-25T08:07:33;16.48;;;9.40;;
33453;SDS011;39400;49.744;7.012;2023-04-25T08:10:03;23.40;;;8.98;;
33453;SDS011;39400;49.744;7.012;2023-04-25T08:12:32;17.87;;;8.23;;
33453;SDS011;39400;49.744;7.012;2023-04-25T08:14:58;16.55;;;8.10;;
33453;SDS011;39400;49.744;7.012;2023-04-25T08:17:26;17.27;;;8.50;;
33453;SDS011;39400;49.744;7.012;2023-04-25T08:19:52;15.98;;;8.82;;
33453;SDS011;39400;49.744;7.012;2023-04-25T08:22:23;21.10;;;8.55;;
33453;SDS011;39400;49.744;7.012;2023-04-25T08:24:54;19.00;;;7.97;;
33453;SDS011;39400;49.744;7.012;2023-04-25T08:27:20;15.18;;;8.38;;
33453;SDS011;39400;49.744;7.012;2023-04-25T08:29:46;20.65;;;9.10;;
33453;SDS011;39400;49.744;7.012;2023-04-25T08:32:11;14.88;;;8.20;;
33453;SDS011;39400;49.744;7.012;2023-04-25T08:34:42;19.65;;;9.02;;
33453;SDS011;39400;49.744;7.012;2023-04-25T08:37:08;18.88;;;9.13;;
33453;SDS011;39400;49.744;7.012;2023-04-25T08:39:48;18.77;;;8.45;;
33453;SDS011;39400;49.744;7.012;2023-04-25T08:42:29;16.40;;;9.10;;
33453;SDS011;39400;49.744;7.012;2023-04-25T08:44:57;24.40;;;7.82;;
33453;SDS011;39400;49.744;7.012;2023-04-25T08:47:29;19.98;;;10.05;;
33453;SDS011;39400;49.744;7.012;2023-04-25T08:49:56;15.77;;;7.03;;
33453;SDS011;39400;49.744;7.012;2023-04-25T08:52:24;22.75;;;7.30;;
33453;SDS011;39400;49.744;7.012;2023-04-25T08:54:55;12.73;;;6.55;;
33453;SDS011;39400;49.744;7.012;2023-04-25T08:57:22;18.63;;;7.40;;
33453;SDS011;39400;49.744;7.012;2023-04-25T08:59:49;12.13;;;4.97;;
33453;SDS011;39400;49.744;7.012;2023-04-25T09:02:17;13.02;;;5.53;;
33453;SDS011;39400;49.744;7.012;2023-04-25T09:04:44;9.05;;;5.32;;
33453;SDS011;39400;49.744;7.012;2023-04-25T09:07:10;9.25;;;4.72;;
33453;SDS011;39400;49.744;7.012;2023-04-25T09:09:35;9.95;;;4.28;;
33453;SDS011;39400;49.744;7.012;2023-04-25T09:12:00;8.85;;;4.22;;
33453;SDS011;39400;49.744;7.012;2023-04-25T09:14:26;13.18;;;4.47;;
33453;SDS011;39400;49.744;7.012;2023-04-25T09:17:10;10.95;;;5.22;;
33453;SDS011;39400;49.744;7.012;2023-04-25T09:19:44;9.50;;;3.75;;
33453;SDS011;39400;49.744;7.012;2023-04-25T09:22:24;8.40;;;3.90;;
33453;SDS011;39400;49.744;7.012;2023-04-25T09:24:49;10.10;;;3.95;;
33453;SDS011;39400;49.744;7.012;2023-04-25T09:27:19;10.25;;;4.80;;
33453;SDS011;39400;49.744;7.012;2023-04-25T09:29:49;9.07;;;4.57;;
33453;SDS011;39400;49.744;7.012;2023-04-25T09:32:23;7.38;;;3.90;;
33453;SDS011;39400;49.744;7.012;2023-04-25T09:34:52;14.18;;;4.75;;
33453;SDS011;39400;49.744;7.012;2023-04-25T09:37:23;7.82;;;3.67;;
33453;SDS011;39400;49.744;7.012;2023-04-25T09:40:13;11.40;;;4.82;;
33453;SDS011;39400;49.744;7.012;2023-04-25T09:42:58;8.25;;;3.85;;
33453;SDS011;39400;49.744;7.012;2023-04-25T09:45:24;6.85;;;3.92;;
33453;SDS011;39400;49.744;7.012;2023-04-25T09:47:49;12.40;;;4.65;;
33453;SDS011;39400;49.744;7.012;2023-04-25T09:53:02;11.93;;;4.53;;
33453;SDS011;39400;49.744;7.012;2023-04-25T09:55:29;9.82;;;3.78;;
33453;SDS011;39400;49.744;7.012;2023-04-25T09:57:54;9.90;;;4.07;;
33453;SDS011;39400;49.744;7.012;2023-04-25T10:00:26;8.73;;;4.82;;
33453;SDS011;39400;49.744;7.012;2023-04-25T10:02:51;14.82;;;3.75;;
33453;SDS011;39400;49.744;7.012;2023-04-25T10:05:37;11.57;;;4.82;;
33453;SDS011;39400;49.744;7.012;2023-04-25T10:08:04;12.82;;;3.95;;
33453;SDS011;39400;49.744;7.012;2023-04-25T10:10:31;9.38;;;3.53;;
33453;SDS011;39400;49.744;7.012;2023-04-25T10:12:57;8.88;;;3.70;;
33453;SDS011;39400;49.744;7.012;2023-04-25T10:15:23;13.40;;;3.78;;
33453;SDS011;39400;49.744;7.012;2023-04-25T10:17:49;13.13;;;3.50;;
33453;SDS011;39400;49.744;7.012;2023-04-25T10:20:15;12.57;;;4.30;;
33453;SDS011;39400;49.744;7.012;2023-04-25T10:22:41;11.18;;;3.88;;
33453;SDS011;39400;49.744;7.012;2023-04-25T10:25:09;10.25;;;4.10;;
33453;SDS011;39400;49.744;7.012;2023-04-25T10:27:35;9.07;;;4.05;;
33453;SDS011;39400;49.744;7.012;2023-04-25T10:30:05;6.95;;;3.10;;
33453;SDS011;39400;49.744;7.012;2023-04-25T10:32:32;11.45;;;4.07;;
33453;SDS011;39400;49.744;7.012;2023-04-25T10:35:02;14.95;;;5.45;;
33453;SDS011;39400;49.744;7.012;2023-04-25T10:37:35;11.00;;;4.20;;
33453;SDS011;39400;49.744;7.012;2023-04-25T10:40:07;8.55;;;3.78;;
33453;SDS011;39400;49.744;7.012;2023-04-25T10:42:33;12.02;;;3.72;;
33453;SDS011;39400;49.744;7.012;2023-04-25T10:45:18;9.85;;;3.47;;
33453;SDS011;39400;49.744;7.012;2023-04-25T10:47:43;9.82;;;4.15;;
33453;SDS011;39400;49.744;7.012;2023-04-25T10:50:09;10.88;;;3.90;;
33453;SDS011;39400;49.744;7.012;2023-04-25T10:52:35;19.38;;;4.43;;
33453;SDS011;39400;49.744;7.012;2023-04-25T10:55:03;12.37;;;4.57;;
33453;SDS011;39400;49.744;7.012;2023-04-25T10:57:30;10.25;;;3.55;;
33453;SDS011;39400;49.744;7.012;2023-04-25T11:00:00;13.30;;;3.80;;
33453;SDS011;39400;49.744;7.012;2023-04-25T11:02:26;15.80;;;4.65;;
33453;SDS011;39400;49.744;7.012;2023-04-25T11:04:53;13.77;;;3.95;;
33453;SDS011;39400;49.744;7.012;2023-04-25T11:09:51;16.42;;;5.75;;
33453;SDS011;39400;49.744;7.012;2023-04-25T11:12:16;10.52;;;3.95;;
33453;SDS011;39400;49.744;7.012;2023-04-25T11:14:42;9.98;;;4.72;;
33453;SDS011;39400;49.744;7.012;2023-04-25T11:17:07;9.68;;;4.18;;
33453;SDS011;39400;49.744;7.012;2023-04-25T11:19:32;9.18;;;3.85;;
33453;SDS011;39400;49.744;7.012;2023-04-25T11:21:58;14.65;;;5.05;;
33453;SDS011;39400;49.744;7.012;2023-04-25T11:24:26;9.90;;;4.10;;
33453;SDS011;39400;49.744;7.012;2023-04-25T11:26:52;12.90;;;3.95;;
33453;SDS011;39400;49.744;7.012;2023-04-25T11:29:17;12.57;;;3.97;;
33453;SDS011;39400;49.744;7.012;2023-04-25T11:31:43;12.55;;;3.20;;
33453;SDS011;39400;49.744;7.012;2023-04-25T11:34:09;12.32;;;3.85;;
33453;SDS011;39400;49.744;7.012;2023-04-25T11:36:34;9.85;;;2.95;;
33453;SDS011;39400;49.744;7.012;2023-04-25T11:39:03;7.57;;;2.92;;
33453;SDS011;39400;49.744;7.012;2023-04-25T11:41:28;11.27;;;4.15;;
33453;SDS011;39400;49.744;7.012;2023-04-25T11:43:55;10.10;;;3.35;;
33453;SDS011;39400;49.744;7.012;2023-04-25T11:46:20;5.10;;;3.08;;
33453;SDS011;39400;49.744;7.012;2023-04-25T11:48:46;9.05;;;3.17;;
33453;SDS011;39400;49.744;7.012;2023-04-25T11:51:12;11.60;;;3.45;;
33453;SDS011;39400;49.744;7.012;2023-04-25T11:53:38;15.75;;;3.78;;
33453;SDS011;39400;49.744;7.012;2023-04-25T11:56:10;8.77;;;3.55;;
33453;SDS011;39400;49.744;7.012;2023-04-25T11:58:53;12.15;;;4.18;;
33453;SDS011;39400;49.744;7.012;2023-04-25T12:01:36;9.43;;;3.67;;
33453;SDS011;39400;49.744;7.012;2023-04-25T12:04:13;13.10;;;4.28;;
33453;SDS011;39400;49.744;7.012;2023-04-25T12:06:41;8.95;;;3.33;;
33453;SDS011;39400;49.744;7.012;2023-04-25T12:09:09;8.60;;;2.80;;
33453;SDS011;39400;49.744;7.012;2023-04-25T12:11:43;9.48;;;3.13;;
33453;SDS011;39400;49.744;7.012;2023-04-25T12:14:09;10.70;;;3.35;;
33453;SDS011;39400;49.744;7.012;2023-04-25T12:16:45;11.32;;;3.67;;
33453;SDS011;39400;49.744;7.012;2023-04-25T12:19:15;13.07;;;4.57;;
33453;SDS011;39400;49.744;7.012;2023-04-25T12:21:41;9.13;;;2.92;;
33453;SDS011;39400;49.744;7.012;2023-04-25T12:24:16;16.90;;;3.85;;
33453;SDS011;39400;49.744;7.012;2023-04-25T12:27:10;10.93;;;4.32;;
33453;SDS011;39400;49.744;7.012;2023-04-25T12:29:34;15.63;;;3.90;;
33453;SDS011;39400;49.744;7.012;2023-04-25T12:32:00;19.95;;;4.18;;
33453;SDS011;39400;49.744;7.012;2023-04-25T12:34:26;17.00;;;4.93;;
33453;SDS011;39400;49.744;7.012;2023-04-25T12:36:51;12.18;;;3.38;;
33453;SDS011;39400;49.744;7.012;2023-04-25T12:39:18;9.20;;;3.60;;
33453;SDS011;39400;49.744;7.012;2023-04-25T12:41:45;13.20;;;3.95;;
33453;SDS011;39400;49.744;7.012;2023-04-25T12:44:11;17.95;;;4.75;;
33453;SDS011;39400;49.744;7.012;2023-04-25T12:46:36;12.93;;;3.90;;
33453;SDS011;39400;49.744;7.012;2023-04-25T12:49:03;12.27;;;3.45;;
33453;SDS011;39400;49.744;7.012;2023-04-25T12:51:29;11.38;;;3.10;;
33453;SDS011;39400;49.744;7.012;2023-04-25T12:53:54;8.65;;;3.22;;
33453;SDS011;39400;49.744;7.012;2023-04-25T12:56:20;17.73;;;4.45;;
33453;SDS011;39400;49.744;7.012;2023-04-25T12:58:45;9.65;;;3.65;;
33453;SDS011;39400;49.744;7.012;2023-04-25T13:01:11;10.35;;;3.20;;
33453;SDS011;39400;49.744;7.012;2023-04-25T13:03:36;13.10;;;3.28;;
33453;SDS011;39400;49.744;7.012;2023-04-25T13:06:01;5.03;;;2.80;;
33453;SDS011;39400;49.744;7.012;2023-04-25T13:08:26;9.88;;;2.92;;
33453;SDS011;39400;49.744;7.012;2023-04-25T13:10:52;6.55;;;2.88;;
33453;SDS011;39400;49.744;7.012;2023-04-25T13:13:17;8.68;;;2.45;;
33453;SDS011;39400;49.744;7.012;2023-04-25T13:15:42;10.68;;;3.45;;
33453;SDS011;39400;49.744;7.012;2023-04-25T13:18:08;11.45;;;3.00;;
33453;SDS011;39400;49.744;7.012;2023-04-25T13:20:33;9.15;;;3.58;;
33453;SDS011;39400;49.744;7.012;2023-04-25T13:22:59;8.38;;;2.90;;
33453;SDS011;39400;49.744;7.012;2023-04-25T13:25:24;10.77;;;2.75;;
33453;SDS011;39400;49.744;7.012;2023-04-25T13:27:49;8.95;;;3.22;;
33453;SDS011;39400;49.744;7.012;2023-04-25T13:30:15;10.18;;;3.63;;
33453;SDS011;39400;49.744;7.012;2023-04-25T13:32:40;11.07;;;2.70;;
33453;SDS011;39400;49.744;7.012;2023-04-25T13:35:06;7.32;;;2.58;;
33453;SDS011;39400;49.744;7.012;2023-04-25T13:37:33;9.20;;;3.00;;
33453;SDS011;39400;49.744;7.012;2023-04-25T13:39:59;10.77;;;4.07;;
33453;SDS011;39400;49.744;7.012;2023-04-25T13:42:25;11.85;;;4.57;;
33453;SDS011;39400;49.744;7.012;2023-04-25T13:44:50;10.77;;;3.35;;
33453;SDS011;39400;49.744;7.012;2023-04-25T13:47:16;8.38;;;3.53;;
33453;SDS011;39400;49.744;7.012;2023-04-25T13:49:41;10.75;;;2.97;;
33453;SDS011;39400;49.744;7.012;2023-04-25T13:52:06;12.50;;;3.88;;
33453;SDS011;39400;49.744;7.012;2023-04-25T13:54:32;8.95;;;3.70;;
33453;SDS011;39400;49.744;7.012;2023-04-25T13:56:57;14.00;;;2.92;;
33453;SDS011;39400;49.744;7.012;2023-04-25T13:59:22;5.72;;;2.40;;
33453;SDS011;39400;49.744;7.012;2023-04-25T14:01:48;13.77;;;2.95;;
33453;SDS011;39400;49.744;7.012;2023-04-25T14:04:13;12.88;;;3.20;;
33453;SDS011;39400;49.744;7.012;2023-04-25T14:06:38;10.40;;;2.67;;
33453;SDS011;39400;49.744;7.012;2023-04-25T14:09:04;11.02;;;2.75;;
33453;SDS011;39400;49.744;7.012;2023-04-25T14:11:29;12.15;;;3.30;;
33453;SDS011;39400;49.744;7.012;2023-04-25T14:13:54;9.98;;;3.08;;
33453;SDS011;39400;49.744;7.012;2023-04-25T14:16:19;11.20;;;2.85;;
33453;SDS011;39400;49.744;7.012;2023-04-25T14:18:45;9.75;;;2.83;;
33453;SDS011;39400;49.744;7.012;2023-04-25T14:21:10;6.07;;;3.17;;
33453;SDS011;39400;49.744;7.012;2023-04-25T14:23:35;7.13;;;2.80;;
33453;SDS011;39400;49.744;7.012;2023-04-25T14:26:01;12.50;;;4.45;;
33453;SDS011;39400;49.744;7.012;2023-04-25T14:28:27;12.15;;;3.38;;
33453;SDS011;39400;49.744;7.012;2023-04-25T14:30:52;5.65;;;2.03;;
33453;SDS011;39400;49.744;7.012;2023-04-25T14:33:17;8.02;;;2.75;;
33453;SDS011;39400;49.744;7.012;2023-04-25T14:35:43;4.75;;;2.78;;
33453;SDS011;39400;49.744;7.012;2023-04-25T14:38:08;13.10;;;2.78;;
33453;SDS011;39400;49.744;7.012;2023-04-25T14:40:34;8.57;;;2.47;;
33453;SDS011;39400;49.744;7.012;2023-04-25T14:42:59;6.32;;;2.50;;
33453;SDS011;39400;49.744;7.012;2023-04-25T14:45:24;7.05;;;2.20;;
33453;SDS011;39400;49.744;7.012;2023-04-25T14:47:49;10.52;;;2.85;;
33453;SDS011;39400;49.744;7.012;2023-04-25T14:50:15;14.25;;;2.30;;
33453;SDS011;39400;49.744;7.012;2023-04-25T14:52:40;8.40;;;2.97;;
33453;SDS011;39400;49.744;7.012;2023-04-25T14:55:06;6.43;;;2.10;;
33453;SDS011;39400;49.744;7.012;2023-04-25T14:57:32;8.75;;;2.35;;
33453;SDS011;39400;49.744;7.012;2023-04-25T14:59:58;6.80;;;2.65;;
33453;SDS011;39400;49.744;7.012;2023-04-25T15:02:23;5.50;;;2.50;;
33453;SDS011;39400;49.744;7.012;2023-04-25T15:04:49;12.63;;;2.30;;